Time;durP1;ratioP1;P1;durP2;ratioP2;P2;SDS_P1;SDS_P2;PMS_P1;PMS_P2;Temp;Humidity;BMP_temperature;BMP_pressure;BME280_temperature;BME280_humidity;BME280_pressure;Samples;Min_cycle;Max_cycle;Signal;HPM_P1;HPM_P2
2023/08/06 00:00:21;;;;;;;4.33;3.03;;;24.50;55.50;;;;;;5011508;28;20657;-72
2023/08/06 00:02:47;;;;;;;4.07;3.00;;;24.50;55.50;;;;;;4996821;28;20180;-72
2023/08/06 00:05:13;;;;;;;3.37;3.07;;;24.50;55.40;;;;;;5015069;28;20414;-72
2023/08/06 00:07:39;;;;;;;3.30;3.00;;;24.50;55.50;;;;;;5015040;28;20779;-72
2023/08/06 00:10:05;;;;;;;3.20;3.00;;;24.50;55.50;;;;;;5014848;28;20220;-72
2023/08/06 00:12:30;;;;;;;2.97;2.67;;;24.50;56.00;;;;;;5014897;28;20247;-72
2023/08/06 00:14:56;;;;;;;3.10;2.60;;;24.50;55.50;;;;;;5014873;28;20415;-73
2023/08/06 00:17:21;;;;;;;3.97;3.60;;;24.50;55.50;;;;;;5014742;28;20180;-72
2023/08/06 00:19:47;;;;;;;3.10;2.80;;;24.50;55.50;;;;;;5015032;28;20276;-72
2023/08/06 00:22:13;;;;;;;2.40;2.20;;;24.50;55.50;;;;;;5014737;28;20177;-72
2023/08/06 00:24:38;;;;;;;2.73;2.53;;;24.50;55.50;;;;;;5014721;28;20705;-72
2023/08/06 00:27:04;;;;;;;3.83;2.80;;;24.50;55.50;;;;;;5014617;28;20239;-72
2023/08/06 00:29:30;;;;;;;3.10;2.83;;;24.50;55.50;;;;;;5014443;28;20214;-72
2023/08/06 00:31:55;;;;;;;3.17;2.97;;;24.50;55.50;;;;;;5014553;28;20466;-72
2023/08/06 00:34:21;;;;;;;3.20;2.90;;;24.50;55.50;;;;;;5014503;28;20700;-71
2023/08/06 00:36:46;;;;;;;2.73;2.50;;;24.50;55.50;;;;;;4997208;28;20208;-73
2023/08/06 00:39:12;;;;;;;2.80;2.60;;;24.50;55.50;;;;;;5014362;28;20206;-71
2023/08/06 00:41:38;;;;;;;2.60;2.40;;;24.50;55.50;;;;;;5014303;28;20200;-73
2023/08/06 00:44:04;;;;;;;3.70;2.63;;;24.50;55.50;;;;;;5014360;28;20706;-72
2023/08/06 00:46:30;;;;;;;2.53;2.20;;;24.50;55.50;;;;;;5014367;28;20251;-72
2023/08/06 00:48:56;;;;;;;3.20;2.60;;;24.50;55.40;;;;;;5014048;28;20212;-73
2023/08/06 00:51:22;;;;;;;3.43;3.03;;;24.50;55.40;;;;;;5014274;28;20411;-73
2023/08/06 00:53:50;;;;;;;2.40;2.20;;;24.50;55.40;;;;;;5014146;28;20414;-72
2023/08/06 00:56:15;;;;;;;3.20;2.90;;;24.50;55.40;;;;;;5014170;28;20408;-71
2023/08/06 00:58:41;;;;;;;2.23;1.83;;;24.50;55.40;;;;;;5014242;28;20899;-72
2023/08/06 01:01:07;;;;;;;2.67;2.47;;;24.50;55.50;;;;;;5014051;28;20185;-72
2023/08/06 01:03:33;;;;;;;2.37;2.17;;;24.50;55.50;;;;;;5014230;28;20422;-73
2023/08/06 01:05:59;;;;;;;2.60;2.40;;;24.50;55.50;;;;;;5013913;28;20181;-73
2023/08/06 01:08:33;;;;;;;2.83;2.60;;;24.50;55.50;;;;;;5013842;28;20215;-73
2023/08/06 01:11:15;;;;;;;2.90;2.60;;;24.50;55.50;;;;;;5014210;28;20398;-73
2023/08/06 01:13:47;;;;;;;2.70;2.50;;;24.50;55.50;;;;;;5013732;28;20396;-73
2023/08/06 01:16:18;;;;;;;2.83;2.30;;;24.50;55.50;;;;;;5013824;28;20475;-73
2023/08/06 01:18:46;;;;;;;2.30;2.10;;;24.50;55.50;;;;;;5013589;28;20411;-73
2023/08/06 01:21:13;;;;;;;2.20;2.00;;;24.50;55.50;;;;;;5013795;28;20923;-72
2023/08/06 01:23:38;;;;;;;2.70;2.50;;;24.50;55.50;;;;;;5013671;28;20791;-72
2023/08/06 01:26:35;;;;;;;2.30;2.10;;;24.50;55.50;;;;;;5013631;28;20418;-72
2023/08/06 01:29:11;;;;;;;3.67;2.40;;;24.50;55.50;;;;;;5013376;28;20220;-72
2023/08/06 01:31:43;;;;;;;3.13;2.40;;;24.50;55.50;;;;;;5013419;28;20409;-72
2023/08/06 01:34:17;;;;;;;2.47;2.27;;;24.50;55.50;;;;;;5013410;28;20449;-72
2023/08/06 01:36:43;;;;;;;2.47;2.27;;;24.50;55.50;;;;;;5013378;28;20410;-72
2023/08/06 01:39:09;;;;;;;2.40;2.20;;;24.50;55.50;;;;;;5013229;28;20454;-72
2023/08/06 01:41:34;;;;;;;2.10;2.00;;;24.50;55.50;;;;;;5012878;28;20422;-73
2023/08/06 01:44:01;;;;;;;2.57;2.37;;;24.50;55.50;;;;;;5013233;28;20188;-72
2023/08/06 01:46:26;;;;;;;2.73;2.53;;;24.50;55.50;;;;;;5013427;28;20180;-72
2023/08/06 01:48:52;;;;;;;2.90;2.33;;;24.40;55.40;;;;;;5013020;28;20481;-72
2023/08/06 01:51:18;;;;;;;2.20;2.00;;;24.50;55.50;;;;;;5013160;28;20177;-72
2023/08/06 01:53:43;;;;;;;2.43;2.23;;;24.50;55.50;;;;;;5013313;28;20176;-72
2023/08/06 01:56:09;;;;;;;2.40;2.20;;;24.50;55.50;;;;;;5013074;28;20176;-72
2023/08/06 01:58:34;;;;;;;3.50;2.30;;;24.50;55.50;;;;;;4994167;28;20577;-73
2023/08/06 02:01:01;;;;;;;2.50;2.10;;;24.50;55.50;;;;;;5012851;28;20259;-73
2023/08/06 02:03:27;;;;;;;2.17;1.97;;;24.50;55.50;;;;;;5013226;28;20526;-72
2023/08/06 02:05:52;;;;;;;2.10;1.90;;;24.50;55.50;;;;;;5012851;28;20426;-73
2023/08/06 02:08:19;;;;;;;2.70;2.50;;;24.50;55.50;;;;;;5012745;28;20192;-72
2023/08/06 02:10:45;;;;;;;2.60;2.40;;;24.50;55.50;;;;;;5012718;28;20279;-70
2023/08/06 02:13:11;;;;;;;2.30;2.10;;;24.50;55.50;;;;;;5012840;28;20426;-72
2023/08/06 02:15:47;;;;;;;2.40;2.20;;;24.40;55.40;;;;;;5012854;28;20411;-71
2023/08/06 02:18:13;;;;;;;2.40;2.20;;;24.50;55.50;;;;;;5013143;28;20644;-72
2023/08/06 02:20:39;;;;;;;3.17;2.50;;;24.50;55.50;;;;;;5012720;28;20432;-72
2023/08/06 02:23:04;;;;;;;3.13;2.70;;;24.50;55.50;;;;;;5012587;28;20772;-73
2023/08/06 02:25:30;;;;;;;2.20;2.00;;;24.50;55.50;;;;;;5012144;28;20541;-72
2023/08/06 02:27:55;;;;;;;2.50;2.30;;;24.50;55.50;;;;;;5012666;28;20183;-72
2023/08/06 02:30:21;;;;;;;2.50;2.30;;;24.40;55.50;;;;;;5012491;28;20718;-73
2023/08/06 02:32:46;;;;;;;2.33;2.13;;;24.50;55.50;;;;;;5012525;28;20649;-73
2023/08/06 02:35:12;;;;;;;2.30;2.03;;;24.50;55.60;;;;;;5012515;28;20538;-72
2023/08/06 02:37:38;;;;;;;2.13;1.93;;;24.50;55.50;;;;;;5012500;28;20181;-73
2023/08/06 02:40:04;;;;;;;2.70;2.50;;;24.40;55.50;;;;;;5012280;28;20223;-72
2023/08/06 02:42:29;;;;;;;2.30;2.10;;;24.50;55.50;;;;;;5012334;28;20250;-73
2023/08/06 02:44:55;;;;;;;2.23;1.93;;;24.50;55.50;;;;;;4994724;28;20427;-72
2023/08/06 02:47:21;;;;;;;2.43;2.23;;;24.50;55.50;;;;;;4994680;28;20180;-71
2023/08/06 02:49:47;;;;;;;2.50;1.87;;;24.50;55.50;;;;;;5012121;28;20208;-72
2023/08/06 02:52:12;;;;;;;2.40;2.20;;;24.50;55.50;;;;;;5012253;28;20287;-72
2023/08/06 02:54:38;;;;;;;2.27;2.07;;;24.50;55.50;;;;;;5012185;28;20411;-73
2023/08/06 02:57:05;;;;;;;1.90;1.80;;;24.50;55.50;;;;;;5012242;28;20645;-72
2023/08/06 02:59:31;;;;;;;2.00;1.87;;;24.50;55.50;;;;;;5012034;28;20239;-73
2023/08/06 03:01:56;;;;;;;2.30;2.10;;;24.40;55.40;;;;;;5012093;28;20490;-73
2023/08/06 03:04:22;;;;;;;2.50;2.30;;;24.50;55.50;;;;;;5012081;28;20510;-72
2023/08/06 03:06:50;;;;;;;2.53;2.33;;;24.50;55.50;;;;;;5012065;28;20185;-72
2023/08/06 03:09:16;;;;;;;2.20;2.00;;;24.50;55.50;;;;;;5011934;28;20295;-72
2023/08/06 03:11:41;;;;;;;2.13;1.93;;;24.40;55.40;;;;;;5011968;28;20502;-73
2023/08/06 03:14:07;;;;;;;1.80;1.70;;;24.50;55.50;;;;;;5012086;28;20219;-72
2023/08/06 03:16:32;;;;;;;2.17;2.00;;;24.50;55.50;;;;;;5012106;28;20173;-72
2023/08/06 03:18:58;;;;;;;2.50;2.30;;;24.40;55.40;;;;;;5011879;28;20238;-72
2023/08/06 03:21:24;;;;;;;2.33;2.13;;;24.40;55.50;;;;;;5011926;28;20238;-73
2023/08/06 03:23:49;;;;;;;2.10;1.90;;;24.40;55.50;;;;;;5012229;28;20184;-72
2023/08/06 03:26:15;;;;;;;2.07;1.87;;;24.40;55.50;;;;;;4994294;28;20600;-72
2023/08/06 03:28:40;;;;;;;2.20;2.00;;;24.40;55.50;;;;;;5011705;28;20205;-72
2023/08/06 03:31:06;;;;;;;2.53;2.33;;;24.40;55.50;;;;;;5011913;28;20169;-72
2023/08/06 03:33:31;;;;;;;1.80;1.70;;;24.40;55.50;;;;;;5011902;28;20176;-73
2023/08/06 03:35:57;;;;;;;2.20;1.90;;;24.40;55.50;;;;;;4994600;28;20267;-72
2023/08/06 03:38:23;;;;;;;2.10;1.90;;;24.40;55.50;;;;;;5015697;28;20516;-73
2023/08/06 03:40:49;;;;;;;2.33;1.70;;;24.40;55.50;;;;;;5015454;28;20219;-72
2023/08/06 03:43:15;;;;;;;2.10;1.57;;;24.40;55.50;;;;;;5015498;28;20176;-73
2023/08/06 03:45:41;;;;;;;2.00;1.90;;;24.40;55.50;;;;;;5015466;28;20407;-73
2023/08/06 03:48:09;;;;;;;2.13;1.93;;;24.40;55.50;;;;;;4997798;28;20415;-72
2023/08/06 03:50:35;;;;;;;1.70;1.50;;;24.40;55.50;;;;;;5015319;28;20439;-72
2023/08/06 03:53:01;;;;;;;2.60;1.93;;;24.40;55.50;;;;;;5015373;28;20415;-70
2023/08/06 03:55:27;;;;;;;2.13;1.90;;;24.40;55.50;;;;;;5015333;28;20191;-73
2023/08/06 03:57:53;;;;;;;2.13;1.93;;;24.40;55.50;;;;;;4997872;28;20407;-72
2023/08/06 04:00:18;;;;;;;1.80;1.70;;;24.40;55.50;;;;;;5015190;28;20732;-72
2023/08/06 04:02:44;;;;;;;2.13;1.93;;;24.40;55.50;;;;;;5015084;28;20176;-72
2023/08/06 04:05:10;;;;;;;2.20;2.00;;;24.40;55.50;;;;;;5015070;28;20251;-72
2023/08/06 04:07:35;;;;;;;1.70;1.60;;;24.40;55.50;;;;;;5015007;28;20169;-72
2023/08/06 04:10:03;;;;;;;2.40;1.70;;;24.40;55.40;;;;;;5014760;28;20219;-73
2023/08/06 04:12:29;;;;;;;2.23;2.03;;;24.40;55.50;;;;;;4997292;28;20715;-73
2023/08/06 04:14:57;;;;;;;1.90;1.43;;;24.40;55.40;;;;;;5014945;28;20415;-72
2023/08/06 04:17:23;;;;;;;2.50;2.30;;;24.40;55.40;;;;;;5014828;28;20173;-71
2023/08/06 04:19:54;;;;;;;2.20;2.00;;;24.40;55.50;;;;;;5014712;28;20453;-72
2023/08/06 04:22:21;;;;;;;1.93;1.73;;;24.40;55.50;;;;;;5014990;28;20791;-72
2023/08/06 04:24:46;;;;;;;1.80;1.70;;;24.40;55.50;;;;;;5014727;28;20792;-71
2023/08/06 04:27:13;;;;;;;1.97;1.83;;;24.40;55.50;;;;;;5014625;28;20408;-73
2023/08/06 04:29:39;;;;;;;2.80;2.10;;;24.40;55.40;;;;;;5014469;28;20207;-72
2023/08/06 04:32:07;;;;;;;2.33;2.13;;;24.40;55.50;;;;;;5014507;28;20781;-73
2023/08/06 04:34:33;;;;;;;2.37;2.07;;;24.40;55.40;;;;;;5014503;28;20165;-72
2023/08/06 04:37:00;;;;;;;2.53;2.37;;;24.40;55.40;;;;;;5014446;28;20423;-72
2023/08/06 04:39:25;;;;;;;1.60;1.50;;;24.40;56.00;;;;;;5014409;28;20211;-73
2023/08/06 04:41:51;;;;;;;1.80;1.70;;;24.40;55.50;;;;;;5014270;28;20427;-73
2023/08/06 04:44:17;;;;;;;2.00;1.80;;;24.40;55.50;;;;;;5014303;28;20633;-72
2023/08/06 04:46:42;;;;;;;2.33;2.13;;;24.40;55.50;;;;;;5013812;28;20184;-72
2023/08/06 04:49:08;;;;;;;1.80;1.70;;;24.40;55.50;;;;;;5014066;28;20218;-73
2023/08/06 04:51:33;;;;;;;1.70;1.60;;;24.40;55.50;;;;;;5014480;28;20587;-72
2023/08/06 04:53:59;;;;;;;2.00;1.80;;;24.40;55.50;;;;;;5014127;28;20709;-72
2023/08/06 04:56:25;;;;;;;1.70;1.60;;;24.40;55.50;;;;;;5014220;28;20545;-73
2023/08/06 04:58:50;;;;;;;1.80;1.70;;;24.40;55.50;;;;;;5013959;28;20192;-73
2023/08/06 05:01:16;;;;;;;2.10;1.90;;;24.40;55.50;;;;;;5014089;28;20180;-72
2023/08/06 05:03:42;;;;;;;2.20;2.00;;;24.40;55.50;;;;;;5014064;28;20182;-72
2023/08/06 05:06:08;;;;;;;1.60;1.50;;;24.40;55.50;;;;;;5013979;28;20425;-72
2023/08/06 05:08:33;;;;;;;2.30;1.67;;;24.40;55.50;;;;;;4996229;28;20203;-72
2023/08/06 05:10:59;;;;;;;2.10;1.90;;;24.40;55.50;;;;;;5014098;28;20187;-72
2023/08/06 05:13:25;;;;;;;1.87;1.70;;;24.40;55.50;;;;;;4996221;28;20188;-73
2023/08/06 05:15:53;;;;;;;2.33;2.13;;;24.40;55.50;;;;;;5013854;28;20177;-73
2023/08/06 05:18:18;;;;;;;2.10;1.90;;;24.40;55.50;;;;;;5013816;28;20414;-72
2023/08/06 05:20:44;;;;;;;1.70;1.60;;;24.40;55.50;;;;;;5013539;28;20791;-73
2023/08/06 05:23:10;;;;;;;1.67;1.57;;;24.40;55.50;;;;;;5013756;28;20683;-71
2023/08/06 05:25:35;;;;;;;1.83;1.73;;;24.40;55.50;;;;;;5013712;28;20486;-73
2023/08/06 05:28:02;;;;;;;1.70;1.60;;;24.40;55.50;;;;;;5013588;28;20260;-73
2023/08/06 05:30:28;;;;;;;1.80;1.70;;;24.40;55.50;;;;;;5013501;28;20664;-72
2023/08/06 05:32:55;;;;;;;1.60;1.50;;;24.40;55.50;;;;;;5013446;28;20399;-73
2023/08/06 05:35:21;;;;;;;1.80;1.70;;;24.40;55.50;;;;;;5013390;28;20403;-73
2023/08/06 05:37:46;;;;;;;1.60;1.50;;;24.40;55.50;;;;;;5013347;28;20425;-72
2023/08/06 05:40:12;;;;;;;1.70;1.60;;;24.40;55.50;;;;;;5013265;28;20307;-73
2023/08/06 05:42:37;;;;;;;1.77;1.67;;;24.40;55.50;;;;;;5013243;28;20182;-72
2023/08/06 05:45:03;;;;;;;2.13;1.73;;;24.40;55.50;;;;;;5013242;28;20176;-72
2023/08/06 05:47:29;;;;;;;2.30;1.80;;;24.40;55.50;;;;;;5013368;28;20267;-73
2023/08/06 05:49:54;;;;;;;1.80;1.70;;;24.40;55.50;;;;;;5012964;28;20466;-72
2023/08/06 05:52:20;;;;;;;2.53;1.73;;;24.40;55.50;;;;;;5013058;28;20169;-72
2023/08/06 05:54:46;;;;;;;1.83;1.73;;;24.40;55.50;;;;;;5012992;28;20294;-72
2023/08/06 05:57:11;;;;;;;2.23;2.00;;;24.40;55.50;;;;;;5013005;28;20169;-72
2023/08/06 05:59:37;;;;;;;2.10;1.90;;;24.40;55.50;;;;;;5012143;28;20564;-72
2023/08/06 06:02:02;;;;;;;1.97;1.50;;;24.40;55.50;;;;;;5012941;28;20207;-72
2023/08/06 06:04:28;;;;;;;2.30;1.60;;;24.40;55.50;;;;;;5012879;28;20179;-72
2023/08/06 06:06:54;;;;;;;1.97;1.87;;;24.40;55.50;;;;;;5012830;28;20645;-73
2023/08/06 06:09:19;;;;;;;2.43;1.67;;;24.40;55.50;;;;;;5012590;28;20211;-72
2023/08/06 06:11:45;;;;;;;2.57;2.00;;;24.40;55.60;;;;;;4995085;28;20270;-73
2023/08/06 06:14:10;;;;;;;1.80;1.70;;;24.40;55.50;;;;;;4995086;28;20176;-72
2023/08/06 06:16:36;;;;;;;1.60;1.50;;;24.40;55.50;;;;;;5012699;28;20172;-72
2023/08/06 06:19:01;;;;;;;2.30;1.77;;;24.40;55.50;;;;;;5012868;28;20227;-72
2023/08/06 06:21:27;;;;;;;1.73;1.63;;;24.40;55.50;;;;;;5012622;28;20176;-72
2023/08/06 06:23:53;;;;;;;2.20;1.73;;;24.40;55.50;;;;;;5012672;28;20176;-72
2023/08/06 06:26:18;;;;;;;1.57;1.40;;;24.40;55.50;;;;;;5012638;28;20491;-72
2023/08/06 06:28:44;;;;;;;1.60;1.50;;;24.40;55.60;;;;;;5012423;28;20255;-70
2023/08/06 06:31:10;;;;;;;2.10;1.70;;;24.40;55.60;;;;;;5012510;28;20203;-72
2023/08/06 06:33:36;;;;;;;2.07;1.60;;;24.40;55.60;;;;;;5012376;28;20242;-71
2023/08/06 06:36:03;;;;;;;1.93;1.73;;;24.40;55.60;;;;;;5012403;28;20415;-72
2023/08/06 06:38:29;;;;;;;2.10;1.70;;;24.40;55.60;;;;;;5012342;28;20176;-71
2023/08/06 06:40:55;;;;;;;1.60;1.50;;;24.40;55.60;;;;;;5012253;28;20967;-72
2023/08/06 06:43:21;;;;;;;1.90;1.80;;;24.40;55.50;;;;;;5012169;28;20180;-72
2023/08/06 06:45:47;;;;;;;1.73;1.60;;;24.40;55.50;;;;;;4994674;28;20423;-71
2023/08/06 06:48:12;;;;;;;2.00;1.80;;;24.40;55.50;;;;;;5012224;28;20461;-72
2023/08/06 06:50:39;;;;;;;1.70;1.53;;;24.40;55.50;;;;;;5012099;28;20247;-73
2023/08/06 06:53:05;;;;;;;3.33;1.43;;;24.40;55.50;;;;;;5012289;28;20231;-72
2023/08/06 06:55:30;;;;;;;1.97;1.70;;;24.50;55.60;;;;;;5012155;28;20407;-70
2023/08/06 06:57:56;;;;;;;2.30;2.10;;;24.50;55.60;;;;;;4994962;28;20415;-72
2023/08/06 07:00:21;;;;;;;3.07;1.93;;;24.40;55.50;;;;;;5012473;28;20218;-74
2023/08/06 07:02:47;;;;;;;2.03;1.83;;;24.40;55.60;;;;;;5012099;28;20181;-74
2023/08/06 07:05:13;;;;;;;1.77;1.57;;;24.40;55.50;;;;;;5012554;28;20207;-74
2023/08/06 07:07:38;;;;;;;1.70;1.60;;;24.50;55.60;;;;;;5012105;28;20592;-74
2023/08/06 07:10:05;;;;;;;2.10;1.80;;;24.50;55.60;;;;;;5012650;28;20287;-73
2023/08/06 07:12:31;;;;;;;2.20;1.80;;;24.50;55.60;;;;;;5016566;28;20168;-74
2023/08/06 07:14:56;;;;;;;2.97;1.60;;;24.40;55.50;;;;;;5016257;28;20426;-75
2023/08/06 07:17:22;;;;;;;2.70;1.70;;;24.50;55.60;;;;;;5016579;28;20176;-74
2023/08/06 07:19:47;;;;;;;2.43;2.17;;;24.50;56.10;;;;;;5016199;28;20192;-74
2023/08/06 07:22:13;;;;;;;2.60;1.90;;;24.50;55.70;;;;;;5015822;28;20172;-74
2023/08/06 07:24:38;;;;;;;3.57;1.63;;;24.50;55.60;;;;;;5015766;28;20232;-74
2023/08/06 07:27:04;;;;;;;2.50;2.10;;;24.50;55.70;;;;;;5015749;28;20177;-74
2023/08/06 07:29:30;;;;;;;3.30;2.03;;;24.50;55.70;;;;;;5015562;28;20207;-74
2023/08/06 07:31:55;;;;;;;3.80;2.00;;;24.40;56.20;;;;;;5015659;28;20420;-74
2023/08/06 07:34:21;;;;;;;3.40;2.27;;;24.50;55.80;;;;;;4981826;28;20174;-74
2023/08/06 07:36:47;;;;;;;5.27;2.30;;;24.50;55.70;;;;;;5015572;28;20173;-74
2023/08/06 07:39:13;;;;;;;3.60;1.97;;;24.40;55.60;;;;;;5015465;28;20975;-75
2023/08/06 07:41:38;;;;;;;3.60;2.10;;;24.40;55.60;;;;;;5015409;28;20184;-74
2023/08/06 07:44:04;;;;;;;2.73;1.80;;;24.50;55.70;;;;;;5015414;28;20210;-74
2023/08/06 07:46:30;;;;;;;5.00;1.80;;;24.50;55.70;;;;;;5015301;28;20242;-73
2023/08/06 07:48:55;;;;;;;2.50;2.30;;;24.40;55.70;;;;;;5015125;28;20215;-72
2023/08/06 07:51:21;;;;;;;2.27;1.83;;;24.40;55.80;;;;;;5015503;28;20172;-75
2023/08/06 07:53:47;;;;;;;2.30;1.93;;;24.50;55.70;;;;;;5015225;28;20183;-73
2023/08/06 07:56:12;;;;;;;2.83;2.17;;;24.40;55.80;;;;;;5015249;28;20164;-74
2023/08/06 07:58:38;;;;;;;2.87;2.17;;;24.40;55.80;;;;;;5015257;28;20222;-73
2023/08/06 08:01:03;;;;;;;2.50;1.97;;;24.40;55.80;;;;;;5015189;28;20267;-74
2023/08/06 08:03:29;;;;;;;3.10;2.20;;;24.40;55.80;;;;;;4997648;28;20180;-73
2023/08/06 08:05:58;;;;;;;2.27;2.00;;;24.50;55.90;;;;;;5015159;28;20668;-74
2023/08/06 08:08:24;;;;;;;2.37;1.90;;;24.40;55.80;;;;;;5015041;28;20683;-73
2023/08/06 08:10:50;;;;;;;5.70;1.97;;;24.40;55.80;;;;;;5015000;28;20437;-75
2023/08/06 08:13:15;;;;;;;2.70;2.20;;;24.40;55.80;;;;;;5015115;28;20498;-74
2023/08/06 08:15:41;;;;;;;2.33;1.77;;;24.50;55.80;;;;;;5015009;28;20263;-74
2023/08/06 08:18:07;;;;;;;2.50;2.10;;;24.40;55.80;;;;;;5014904;28;20176;-73
2023/08/06 08:20:35;;;;;;;2.53;1.80;;;24.50;55.80;;;;;;5014886;28;20279;-73
2023/08/06 08:23:00;;;;;;;3.47;2.10;;;24.50;55.70;;;;;;5014118;28;20408;-74
2023/08/06 08:25:27;;;;;;;2.20;2.00;;;24.50;55.70;;;;;;5014883;28;20461;-74
2023/08/06 08:27:54;;;;;;;3.00;1.80;;;24.50;55.80;;;;;;5014765;28;20646;-71
2023/08/06 08:30:20;;;;;;;4.83;2.57;;;24.50;55.80;;;;;;5014607;28;20550;-71
2023/08/06 08:32:45;;;;;;;5.03;1.90;;;24.50;55.80;;;;;;5014647;28;20486;-73
2023/08/06 08:35:12;;;;;;;5.77;1.70;;;24.50;55.80;;;;;;5014900;28;20175;-72
2023/08/06 08:37:38;;;;;;;2.10;1.87;;;24.50;55.80;;;;;;5014782;28;20537;-73
2023/08/06 08:40:06;;;;;;;2.13;1.93;;;24.50;55.70;;;;;;5014214;28;20454;-73
2023/08/06 08:42:32;;;;;;;1.77;1.53;;;24.50;56.30;;;;;;5014459;28;20787;-73
2023/08/06 08:44:57;;;;;;;2.50;1.80;;;24.50;55.70;;;;;;5014587;28;20416;-74
2023/08/06 08:47:24;;;;;;;2.17;1.57;;;24.50;55.70;;;;;;5014538;28;20173;-73
2023/08/06 08:49:54;;;;;;;1.70;1.60;;;24.50;55.70;;;;;;5014421;28;20211;-72
2023/08/06 08:52:21;;;;;;;1.77;1.63;;;24.50;55.70;;;;;;5014312;28;20423;-73
2023/08/06 08:54:51;;;;;;;2.07;1.30;;;24.50;55.70;;;;;;5014111;28;20414;-71
2023/08/06 08:57:17;;;;;;;2.63;1.53;;;24.50;55.70;;;;;;5014403;28;20494;-73
2023/08/06 08:59:43;;;;;;;4.77;1.80;;;24.50;55.70;;;;;;5013991;28;20446;-73
2023/08/06 09:02:11;;;;;;;2.77;1.63;;;24.50;55.70;;;;;;5013938;28;20780;-73
2023/08/06 09:04:37;;;;;;;1.90;1.57;;;24.50;55.70;;;;;;5013933;28;20172;-73
2023/08/06 09:07:05;;;;;;;2.13;1.50;;;24.50;55.70;;;;;;4996254;28;20873;-72
2023/08/06 09:09:37;;;;;;;2.00;1.80;;;24.50;55.70;;;;;;5013704;28;20490;-73
2023/08/06 09:12:11;;;;;;;1.80;1.50;;;24.50;55.70;;;;;;5014089;28;20441;-73
2023/08/06 09:14:37;;;;;;;3.40;1.80;;;24.50;55.70;;;;;;5014148;28;20404;-73
2023/08/06 09:17:04;;;;;;;1.40;1.30;;;24.50;55.70;;;;;;5014267;28;20819;-74
2023/08/06 09:19:30;;;;;;;2.53;1.43;;;24.50;55.70;;;;;;4996220;28;20202;-73
2023/08/06 09:21:56;;;;;;;1.50;1.40;;;24.50;55.70;;;;;;5013970;28;20427;-71
2023/08/06 09:24:22;;;;;;;2.80;1.60;;;24.50;55.70;;;;;;4996233;28;20642;-72
2023/08/06 09:26:48;;;;;;;2.50;1.43;;;24.50;55.70;;;;;;5014014;28;20407;-73
2023/08/06 09:29:14;;;;;;;2.37;1.77;;;24.50;55.70;;;;;;5013539;28;20208;-73
2023/08/06 09:31:48;;;;;;;3.17;1.80;;;24.50;55.70;;;;;;4996168;28;20181;-74
2023/08/06 09:34:19;;;;;;;2.10;1.90;;;24.50;55.80;;;;;;5013769;28;20421;-73
2023/08/06 09:36:50;;;;;;;2.27;1.70;;;24.50;55.70;;;;;;5013880;28;20435;-74
2023/08/06 09:39:21;;;;;;;2.33;1.80;;;24.50;55.70;;;;;;5013778;28;20442;-73
2023/08/06 09:41:49;;;;;;;3.30;1.47;;;24.50;55.70;;;;;;5013613;28;20447;-73
2023/08/06 09:44:16;;;;;;;2.30;1.60;;;24.50;55.70;;;;;;4996431;28;20766;-74
2023/08/06 09:46:42;;;;;;;1.77;1.43;;;24.50;55.70;;;;;;5013986;28;20430;-75
2023/08/06 09:49:09;;;;;;;4.87;1.77;;;24.50;55.70;;;;;;4996232;28;20984;-74
2023/08/06 09:51:37;;;;;;;1.50;1.40;;;24.50;55.70;;;;;;5014216;28;20613;-73
2023/08/06 09:54:04;;;;;;;1.60;1.50;;;24.50;55.70;;;;;;5013957;28;20407;-74
2023/08/06 09:56:33;;;;;;;3.73;1.83;;;24.50;55.70;;;;;;5013391;28;20411;-74
2023/08/06 09:58:59;;;;;;;1.60;1.50;;;24.50;55.70;;;;;;5013508;28;20442;-73
2023/08/06 10:01:25;;;;;;;1.67;1.37;;;24.50;55.70;;;;;;5013279;28;20502;-72
2023/08/06 10:03:53;;;;;;;1.87;1.40;;;24.50;55.70;;;;;;5013012;28;20506;-74
2023/08/06 10:06:20;;;;;;;2.70;1.40;;;24.50;55.70;;;;;;4995299;28;20176;-72
2023/08/06 10:08:46;;;;;;;2.70;1.57;;;24.50;55.70;;;;;;5012507;28;20446;-71
2023/08/06 10:11:12;;;;;;;3.87;1.60;;;24.50;55.80;;;;;;5011857;28;20433;-71
2023/08/06 10:13:39;;;;;;;2.57;1.40;;;24.50;55.70;;;;;;4994943;28;20423;-71
2023/08/06 10:16:06;;;;;;;2.40;1.77;;;24.50;55.70;;;;;;5012520;28;20422;-71
2023/08/06 10:18:32;;;;;;;1.77;1.23;;;24.60;55.70;;;;;;5011681;28;20490;-73
2023/08/06 10:20:59;;;;;;;5.67;1.50;;;24.60;55.70;;;;;;5011255;28;20924;-70
2023/08/06 10:23:37;;;;;;;1.87;1.67;;;24.60;55.70;;;;;;5012620;28;20407;-72
2023/08/06 10:26:03;;;;;;;2.03;1.40;;;24.60;55.80;;;;;;5012540;28;20777;-72
2023/08/06 10:28:39;;;;;;;1.60;1.30;;;24.60;55.70;;;;;;5012470;28;20502;-71
2023/08/06 10:31:05;;;;;;;8.50;2.63;;;24.60;55.70;;;;;;5012779;28;20199;-72
2023/08/06 10:33:56;;;;;;;2.60;1.77;;;24.50;55.60;;;;;;5012514;28;20411;-73
2023/08/06 10:36:22;;;;;;;3.93;1.70;;;24.60;55.80;;;;;;5008647;28;20458;-71
2023/08/06 10:38:49;;;;;;;3.10;1.90;;;24.50;55.70;;;;;;5012200;28;20466;-73
2023/08/06 10:41:28;;;;;;;3.00;1.30;;;24.50;55.70;;;;;;5012380;28;20196;-73
2023/08/06 10:44:14;;;;;;;2.70;1.40;;;24.60;55.70;;;;;;5012344;28;20825;-73
2023/08/06 10:46:40;;;;;;;1.80;1.30;;;24.60;55.70;;;;;;5011776;28;20494;-72
2023/08/06 10:49:07;;;;;;;2.50;1.50;;;24.50;55.60;;;;;;5012240;28;20513;-73
2023/08/06 10:51:33;;;;;;;3.43;1.43;;;24.60;55.60;;;;;;5012570;28;20176;-72
2023/08/06 10:53:58;;;;;;;2.13;1.30;;;24.50;55.50;;;;;;5012302;28;20770;-71
2023/08/06 10:56:26;;;;;;;2.57;1.40;;;24.60;55.50;;;;;;5012292;28;20247;-70
2023/08/06 10:58:54;;;;;;;1.50;1.10;;;24.60;55.60;;;;;;5012199;28;20188;-73
2023/08/06 11:01:21;;;;;;;2.90;1.50;;;24.60;55.60;;;;;;5012143;28;20417;-72
2023/08/06 11:03:49;;;;;;;4.07;1.23;;;24.60;55.60;;;;;;4994485;28;20407;-73
2023/08/06 11:06:22;;;;;;;2.73;1.20;;;24.60;55.60;;;;;;5012114;28;20429;-72
2023/08/06 11:08:53;;;;;;;1.80;1.20;;;24.60;55.50;;;;;;5012209;28;20471;-73
2023/08/06 11:11:18;;;;;;;5.77;1.23;;;24.60;55.50;;;;;;5012111;28;20395;-72
2023/08/06 11:13:46;;;;;;;1.83;1.10;;;24.60;55.50;;;;;;5012297;28;20461;-71
2023/08/06 11:16:17;;;;;;;2.23;1.07;;;24.60;55.40;;;;;;4994423;28;20169;-72
2023/08/06 11:18:42;;;;;;;1.53;0.90;;;24.60;55.30;;;;;;5012003;28;20388;-73
2023/08/06 11:21:09;;;;;;;1.10;0.73;;;24.60;55.30;;;;;;5011978;28;21050;-71
2023/08/06 11:23:36;;;;;;;1.47;0.90;;;24.60;55.20;;;;;;4994248;28;20176;-73
2023/08/06 11:26:01;;;;;;;1.10;1.00;;;24.60;55.10;;;;;;5011960;28;20411;-73
2023/08/06 11:28:27;;;;;;;3.27;0.70;;;24.60;55.10;;;;;;5011659;28;20748;-72
2023/08/06 11:30:55;;;;;;;2.90;0.80;;;24.60;55.00;;;;;;4994262;28;20271;-72
2023/08/06 11:33:29;;;;;;;1.10;0.80;;;24.60;54.90;;;;;;5011818;28;20642;-73
2023/08/06 11:35:57;;;;;;;0.97;0.80;;;24.50;54.80;;;;;;5011824;28;20514;-73
2023/08/06 11:38:28;;;;;;;1.20;0.80;;;24.60;54.80;;;;;;5011738;28;20533;-72
2023/08/06 11:40:54;;;;;;;1.20;0.73;;;24.50;54.70;;;;;;5011577;28;20423;-71
2023/08/06 11:43:22;;;;;;;0.90;0.77;;;24.50;54.70;;;;;;5011696;28;20426;-73
2023/08/06 11:45:48;;;;;;;1.00;0.80;;;24.50;54.60;;;;;;5011660;28;20829;-72
2023/08/06 11:48:14;;;;;;;0.90;0.70;;;24.50;54.70;;;;;;4993947;28;20510;-71
2023/08/06 11:50:39;;;;;;;1.20;0.70;;;24.50;54.70;;;;;;4993881;28;20558;-73
2023/08/06 11:53:05;;;;;;;3.00;0.77;;;24.50;54.70;;;;;;5011598;28;20218;-73
2023/08/06 11:55:31;;;;;;;0.90;0.73;;;24.50;54.70;;;;;;5011521;28;20207;-72
2023/08/06 11:57:58;;;;;;;0.80;0.60;;;24.50;54.70;;;;;;5013402;28;20920;-72
2023/08/06 12:00:26;;;;;;;1.30;0.70;;;24.50;54.70;;;;;;5015023;28;20427;-73
2023/08/06 12:02:53;;;;;;;0.80;0.60;;;24.50;54.70;;;;;;5015020;28;20419;-72
2023/08/06 12:05:20;;;;;;;1.00;0.80;;;24.50;54.80;;;;;;5015120;28;20415;-73
2023/08/06 12:07:49;;;;;;;0.90;0.60;;;24.50;54.70;;;;;;4997642;28;20992;-72
2023/08/06 12:10:15;;;;;;;0.80;0.63;;;24.50;54.80;;;;;;5014820;28;20459;-73
2023/08/06 12:12:41;;;;;;;0.90;0.70;;;24.50;54.80;;;;;;5014939;28;20491;-72
2023/08/06 12:15:08;;;;;;;0.90;0.70;;;24.50;54.80;;;;;;5014902;28;20490;-73
2023/08/06 12:17:34;;;;;;;0.90;0.80;;;24.50;54.80;;;;;;5015109;28;20407;-71
2023/08/06 12:20:00;;;;;;;1.10;0.80;;;24.50;54.70;;;;;;5014736;28;20522;-72
2023/08/06 12:22:26;;;;;;;0.90;0.70;;;24.50;54.70;;;;;;5014776;28;20450;-72
2023/08/06 12:24:52;;;;;;;1.30;0.90;;;24.50;54.70;;;;;;5014677;28;20407;-73
2023/08/06 12:27:17;;;;;;;1.00;0.70;;;24.50;54.70;;;;;;5014598;28;20203;-72
2023/08/06 12:29:45;;;;;;;1.00;0.80;;;24.50;54.70;;;;;;5014545;28;20694;-72
2023/08/06 12:32:11;;;;;;;1.13;0.87;;;24.50;54.70;;;;;;4997013;28;20560;-72
2023/08/06 12:34:41;;;;;;;1.00;0.70;;;24.50;54.80;;;;;;5014531;28;20411;-72
2023/08/06 12:37:08;;;;;;;1.00;0.70;;;24.50;54.70;;;;;;5014567;28;20404;-71
2023/08/06 12:39:34;;;;;;;1.00;0.70;;;24.40;54.60;;;;;;5014701;28;20450;-73
2023/08/06 12:42:01;;;;;;;1.00;0.70;;;24.50;54.70;;;;;;5014499;28;20399;-74
2023/08/06 12:44:27;;;;;;;1.10;0.80;;;24.50;54.80;;;;;;5014434;28;20566;-72